Home   Weather   Réunion (French)   Saint-Denis   Past weeks
Flag for Réunion (French)

Past Weather in Saint-Denis, Réunion (French) — Yesterday and Last 2 Weeks

Currently: 75 °F. Sunny. (Weather station: Saint-Denis / Gillot, Réunion (French)). See more current weather

Past Weather in Saint-Denis — Graph

°F

Saint-Denis Temperature Yesterday

Maximum temperature yesterday: 86 °F (at 2:30 pm)
Minimum temperature yesterday: 73 °F (at 12:00 am)
Average temperature yesterday: 78 °F

High & Low Weather Summary for the Past Weeks

  Temperature Humidity Pressure
High 90 °F (Apr 29, 2:30 pm) 100% (Apr 27, 8:00 am) 30.07 "Hg (Apr 27, 8:00 am)
Low 66 °F (May 7, 4:30 am) 49% (May 7, 11:00 am) 29.77 "Hg (Apr 27, 3:00 pm)
Average 79 °F 74% 29.95 "Hg
* Reported Apr 24 6:00 am — May 9 6:30 am, Saint-Denis. Weather by CustomWeather, © 2026

Note: Actual official high and low records may vary slightly from our data, if they occured in-between our weather recording intervals... More about our weather records

Saint-Denis Weather History for the Previous 24 Hours

Scroll right to see more
  Conditions Comfort    
Time   Temp Weather Wind   Humidity Barometer Visibility
6:30 am
Sat, May 9
75 °F Passing clouds. 14 mph 78% 30.04 "Hg N/A
6:00 am 75 °F Passing clouds. 13 mph 74% 30.04 "Hg N/A
5:30 am 75 °F Passing clouds. 9 mph 74% 30.01 "Hg N/A
5:00 am 75 °F Passing clouds. 8 mph 74% 30.01 "Hg N/A
4:30 am 73 °F Clear. 6 mph 69% 30.01 "Hg 10 mi
4:00 am 72 °F Clear. 2 mph 73% 30.01 "Hg 10 mi
3:30 am 72 °F Clear. 3 mph 73% 30.01 "Hg 10 mi
3:00 am 68 °F Clear. 3 mph 78% 30.04 "Hg 10 mi
2:30 am 70 °F Clear. 6 mph 78% 30.04 "Hg 10 mi
2:00 am 72 °F Clear. 3 mph 73% 30.04 "Hg 10 mi
1:30 am 73 °F Clear. 3 mph 69% 30.04 "Hg 10 mi
1:00 am 73 °F Clear. 3 mph 74% 30.07 "Hg 10 mi
12:30 am 73 °F Clear. 8 mph 74% 30.07 "Hg 10 mi
12:00 am 75 °F Passing clouds. 10 mph 74% 30.07 "Hg N/A
11:30 pm
Fri, May 8
75 °F Clear. 12 mph 69% 30.07 "Hg 10 mi
11:00 pm 75 °F Clear. 10 mph 69% 30.07 "Hg 10 mi
10:30 pm 75 °F Clear. 12 mph 65% 30.07 "Hg 10 mi
10:00 pm 73 °F Clear. 10 mph 69% 30.07 "Hg 10 mi
9:30 pm 75 °F Clear. 10 mph 65% 30.07 "Hg 10 mi
9:00 pm 75 °F Clear. 10 mph 65% 30.07 "Hg 10 mi
8:30 pm 73 °F Clear. 8 mph 69% 30.07 "Hg 10 mi
8:00 pm 75 °F Clear. 10 mph 69% 30.04 "Hg 10 mi
7:30 pm 75 °F Clear. 9 mph 74% 30.04 "Hg 10 mi
7:00 pm 75 °F Clear. 10 mph 74% 30.04 "Hg 10 mi
6:30 pm 77 °F Clear. 10 mph 74% 30.01 "Hg 10 mi
6:00 pm 79 °F Clear. 14 mph 70% 30.01 "Hg 10 mi
5:30 pm 81 °F Sunny. 17 mph 66% 30.01 "Hg 10 mi
5:00 pm 82 °F Sunny. 18 mph 62% 30.01 "Hg 10 mi
4:30 pm 82 °F Sunny. 18 mph 62% 29.98 "Hg 10 mi
4:00 pm 84 °F Sunny. 18 mph 55% 29.98 "Hg 10 mi
3:30 pm 84 °F Sunny. 16 mph 55% 29.98 "Hg 10 mi
3:00 pm 84 °F Sunny. 18 mph 51% 29.98 "Hg 10 mi
2:30 pm 86 °F Passing clouds. 21 mph 55% 29.98 "Hg N/A
2:00 pm 84 °F Scattered clouds. 20 mph 62% 29.98 "Hg N/A
1:30 pm 82 °F Partly sunny. 18 mph 66% 30.01 "Hg N/A
1:00 pm 82 °F Overcast. 20 mph 66% 30.01 "Hg N/A
12:30 pm 82 °F Partly sunny. 17 mph 66% 30.01 "Hg N/A
12:00 pm 82 °F Scattered clouds. 15 mph 66% 30.01 "Hg N/A
11:30 am 84 °F Broken clouds. 15 mph 58% 30.04 "Hg N/A
11:00 am 84 °F Partly sunny. 17 mph 58% 30.04 "Hg N/A
10:30 am 84 °F Passing clouds. 20 mph 58% 30.04 "Hg N/A
10:00 am 84 °F Sunny. 18 mph 58% 30.04 "Hg 10 mi
9:30 am 84 °F Sunny. 17 mph 55% 30.04 "Hg 10 mi
9:00 am 82 °F Passing clouds. 17 mph 55% 30.04 "Hg N/A
8:30 am 82 °F Sunny. 15 mph 51% 30.04 "Hg 10 mi
8:00 am 79 °F Sunny. 13 mph 58% 30.04 "Hg 10 mi
7:30 am 75 °F Sunny. 9 mph 54% 30.04 "Hg 10 mi
7:00 am 73 °F Sunny. 13 mph 57% 30.01 "Hg 10 mi
Weather by CustomWeather, © 2026

See weather overview